Afton, Texas
Current Conditions -  °F | °C
As of 2:53 PM on Friday 31 Oct 2014 (Local Time) from KCDS Reporting Station
Clear Clear  
Wind Chill: 63°   Ceiling: Unl
Heat Index: 63°   Visibility: 10mi
Dew Point: 30°   Wind: 9mph
Humidity: 29%   Direction: 60°ENE
Pressure: 30.39"   Gusts: NA
Location:  33.76°N, 100.82°W
Report Text: KCDS 311953Z AUTO 06008KT 10SM CLR 17/M01 A3039 RMK AO2 SLP282 T01721011
Loading
Personal Weather Stations






























Interactive Weather Map New forecast layout! Learn more

10-Day Weather Forecast

Advertisements
Track Severe Weather on mobile